Findlay Airport
KFDY : now visible

Airfield :











YOU CAN JOIN US ON...

 
LOGIN :

Register | Disclaimer

   EN    FR    IT 

 









Legend :    VFR   Marginal VFR   IFR   Intensive IFR   Very Intensive IFR
Visi :
Ceiling :
>= 8 km
>= 3000ft
5 to 8 km
1000 to 3000 ft
1500m to 5 km
500 to 1000 ft
800 to 1500m
200 to 500 ft
< 800m
< 200 ft
Symbols :   Thunderstorms  Fog  Heavy snow  Heavy precipitations  Wind > 20 kt






- Airport Elevation : 813 ft


KFDY - Findlay

CURRENT METAR :
  • 250653Z AUTO 23005KT 5SM -RA BR OVC007 04/03 A2982 RMK AO2 RAB02 SLP098 P0000 T00390028

EXPIRED METARs :
  • 250553Z AUTO 23006KT 8SM BKN009 OVC013 04/03 A2982 RMK AO2 SLP100 T00440028 10056 20044 50007
  • 250506Z AUTO 23008KT 9SM OVC009 05/03 A2983 RMK AO2 T00500033

TAF KFDY
Valid from the 25 at 06:00 until the 26 at 06:00 UTC


250520Z 2506/2606 22008KT 6SM BR OVC010
TEMPO 2507/2511 1SM -SNRA BR OVC006
FM251100 22006KT 2SM BR OVC003
TEMPO 2511/2515 1SM -SN BR OVC002
FM251800 22012KT 5SM -SN BR OVC008
FM260000 23010KT 1 1/2SM -SHSN BR OVC003
FM260300 25011KT 2SM BR OVC008



MET'MAP, your aeronautical weather chart ! - Copyright ORBIFLY December 2007 - Disclaimer

ORBIFLY MET'MAP TEAM :

Programming & Development : Alexandra Zaïnal
Concept & original design : Baudouin d'Aumeries
Assistance for programming : Marc-Olivier Méhu
Technical & hardware support : Manuel Goepfert

Contact : metmap@orbifly.com




SOURCES & CREDITS :

   NOAA       Earth
Advisory